createdAt,value
2018-12-31T00:04:43.718Z,12.60
2018-12-31T00:10:06.485Z,12.47
2018-12-31T00:15:29.249Z,13.63
2018-12-31T00:20:45.274Z,13.50
2018-12-31T00:26:01.626Z,15.07
2018-12-31T00:31:17.209Z,16.23
2018-12-31T00:36:32.591Z,16.23
2018-12-31T00:41:47.933Z,14.23
2018-12-31T00:47:03.578Z,15.10
2018-12-31T00:52:18.908Z,15.87
2018-12-31T00:57:34.915Z,16.87
2018-12-31T01:02:50.756Z,18.03
2018-12-31T01:08:06.041Z,18.10
2018-12-31T01:13:21.613Z,17.77
2018-12-31T01:18:37.006Z,16.30
2018-12-31T01:23:52.657Z,17.10
2018-12-31T01:29:08.858Z,17.30
2018-12-31T01:34:25.098Z,17.57
2018-12-31T01:39:40.509Z,17.87
2018-12-31T01:44:56.005Z,18.67
2018-12-31T01:50:11.849Z,17.23
2018-12-31T01:55:28.006Z,18.80
2018-12-31T02:00:43.170Z,17.30
2018-12-31T02:05:58.932Z,16.20
2018-12-31T02:11:14.673Z,18.10
2018-12-31T02:16:29.962Z,18.43
2018-12-31T02:21:45.778Z,20.33
2018-12-31T02:27:01.841Z,21.70
2018-12-31T02:32:17.363Z,19.70
2018-12-31T02:37:33.117Z,20.13
2018-12-31T02:42:49.134Z,18.27
2018-12-31T02:48:04.869Z,17.37
2018-12-31T02:53:20.393Z,16.70
2018-12-31T02:58:36.173Z,17.43
2018-12-31T03:03:51.713Z,18.13
2018-12-31T03:09:07.642Z,19.30
2018-12-31T03:14:11.068Z,19.03
2018-12-31T03:19:33.835Z,18.43
2018-12-31T03:24:48.994Z,18.20
2018-12-31T03:30:04.782Z,18.60
2018-12-31T03:35:20.601Z,17.53
2018-12-31T03:40:36.190Z,16.93
2018-12-31T03:45:52.582Z,17.10
2018-12-31T03:51:08.290Z,16.93
2018-12-31T03:56:24.590Z,15.87
2018-12-31T04:01:40.010Z,16.00
2018-12-31T04:06:55.721Z,16.70
2018-12-31T04:11:59.965Z,19.17
2018-12-31T04:17:22.730Z,19.93
2018-12-31T04:22:38.173Z,22.97
2018-12-31T04:27:54.171Z,22.37
2018-12-31T04:33:09.934Z,22.80
2018-12-31T04:38:25.682Z,26.03
2018-12-31T04:43:41.217Z,25.23
2018-12-31T04:48:56.658Z,28.90
2018-12-31T04:54:12.876Z,28.80
2018-12-31T04:59:28.674Z,24.50
2018-12-31T05:04:44.060Z,25.90
2018-12-31T05:09:59.378Z,26.90
2018-12-31T05:15:15.245Z,27.40
2018-12-31T05:20:31.533Z,31.90
2018-12-31T05:25:47.181Z,27.53
2018-12-31T05:31:02.394Z,32.33
2018-12-31T05:36:18.211Z,33.83
2018-12-31T05:41:33.834Z,33.87
2018-12-31T05:46:49.401Z,34.67
2018-12-31T05:52:04.700Z,32.83
2018-12-31T05:57:20.309Z,31.77
2018-12-31T06:02:35.554Z,32.47
2018-12-31T06:07:51.474Z,31.97
2018-12-31T06:13:06.968Z,32.60
2018-12-31T06:18:22.695Z,28.87
2018-12-31T06:23:38.685Z,30.07
2018-12-31T06:28:54.257Z,30.33
2018-12-31T06:34:09.425Z,28.90
2018-12-31T06:39:25.371Z,26.47
2018-12-31T06:44:41.026Z,28.77
2018-12-31T06:49:57.148Z,28.77
2018-12-31T06:55:12.973Z,27.27
2018-12-31T07:00:28.929Z,27.70
2018-12-31T07:05:45.297Z,27.10
2018-12-31T07:11:01.245Z,26.13
2018-12-31T07:16:17.356Z,24.67
2018-12-31T07:21:32.815Z,25.23
2018-12-31T07:26:49.373Z,25.87
2018-12-31T07:32:05.229Z,24.83
2018-12-31T07:37:20.773Z,25.70
2018-12-31T07:42:36.245Z,25.03
2018-12-31T07:47:51.602Z,23.53
2018-12-31T07:53:06.990Z,23.93
2018-12-31T07:58:22.821Z,22.50
2018-12-31T08:03:38.537Z,24.67
2018-12-31T08:08:54.645Z,22.87
2018-12-31T08:14:10.287Z,21.17
2018-12-31T08:19:25.638Z,19.70
2018-12-31T08:24:41.045Z,20.27
2018-12-31T08:29:57.110Z,19.77
2018-12-31T08:35:00.545Z,21.17
2018-12-31T08:40:23.321Z,19.40
2018-12-31T08:45:46.146Z,18.10
2018-12-31T08:51:09.214Z,18.23
2018-12-31T08:56:32.062Z,18.43
2018-12-31T09:01:55.107Z,20.20
2018-12-31T09:07:18.140Z,19.33
2018-12-31T09:12:41.157Z,22.70
2018-12-31T09:18:04.175Z,20.77
2018-12-31T09:23:19.832Z,18.20
2018-12-31T09:28:37.520Z,19.13
2018-12-31T09:33:54.864Z,21.37
2018-12-31T09:39:10.859Z,20.07
2018-12-31T09:44:27.118Z,20.60
2018-12-31T09:49:43.458Z,21.27
2018-12-31T09:54:59.294Z,22.43
2018-12-31T10:00:15.027Z,24.30
2018-12-31T10:05:32.424Z,21.27
2018-12-31T10:10:48.361Z,23.23
2018-12-31T10:16:03.762Z,22.73
2018-12-31T10:21:19.447Z,23.10
2018-12-31T10:26:35.170Z,24.53
2018-12-31T10:31:50.748Z,23.00
2018-12-31T10:37:06.555Z,21.17
2018-12-31T10:42:23.932Z,20.23
2018-12-31T10:47:39.675Z,19.77
2018-12-31T10:52:57.155Z,18.33
2018-12-31T10:58:13.538Z,18.80
2018-12-31T11:03:29.381Z,18.80
2018-12-31T11:08:46.039Z,17.80
2018-12-31T11:14:01.513Z,19.97
2018-12-31T11:19:20.581Z,18.60
2018-12-31T11:24:36.671Z,19.30
2018-12-31T11:29:52.441Z,20.27
2018-12-31T11:35:08.577Z,18.53
2018-12-31T11:40:24.391Z,18.57
2018-12-31T11:45:39.703Z,17.97
2018-12-31T11:56:16.689Z,17.23
2018-12-31T12:01:32.349Z,18.97
2018-12-31T12:06:51.092Z,16.93
2018-12-31T12:12:06.055Z,16.83
2018-12-31T12:17:21.695Z,17.67
2018-12-31T12:22:37.282Z,21.80
2018-12-31T12:27:52.729Z,20.10
2018-12-31T12:33:08.228Z,18.13
2018-12-31T12:38:24.154Z,19.17
2018-12-31T12:43:40.188Z,20.90
2018-12-31T12:48:56.317Z,21.03
2018-12-31T12:54:12.232Z,20.77
2018-12-31T13:04:48.570Z,22.50
2018-12-31T13:10:04.659Z,23.13
2018-12-31T13:15:21.012Z,19.07
2018-12-31T13:20:36.607Z,19.57
2018-12-31T13:25:52.638Z,23.70
2018-12-31T13:31:08.694Z,22.67
2018-12-31T13:36:25.185Z,24.07
2018-12-31T13:41:40.839Z,24.50
2018-12-31T13:47:00.098Z,24.20
2018-12-31T13:52:15.472Z,25.43
2018-12-31T13:57:31.029Z,23.87
2018-12-31T14:02:46.795Z,24.83
2018-12-31T14:08:02.528Z,23.87
2018-12-31T14:13:19.001Z,22.50
2018-12-31T14:18:34.407Z,24.33
2018-12-31T14:23:50.498Z,25.20
2018-12-31T14:29:05.998Z,24.33
2018-12-31T14:34:21.569Z,25.77
2018-12-31T14:39:37.370Z,25.47
2018-12-31T14:44:53.049Z,27.70
2018-12-31T14:49:56.506Z,28.20
2018-12-31T14:55:19.362Z,27.40
2018-12-31T15:00:42.185Z,25.60
2018-12-31T15:06:05.012Z,25.97
2018-12-31T15:11:28.192Z,25.20
2018-12-31T15:16:52.680Z,23.87
2018-12-31T15:22:10.352Z,26.43
2018-12-31T15:27:26.070Z,23.60
2018-12-31T15:32:45.053Z,22.40
2018-12-31T15:38:00.950Z,21.30
2018-12-31T15:43:16.306Z,21.60
2018-12-31T15:48:31.606Z,21.63
2018-12-31T15:53:47.310Z,21.20
2018-12-31T15:59:03.061Z,24.10
2018-12-31T16:04:18.765Z,22.27
2018-12-31T16:09:34.253Z,22.20
2018-12-31T16:14:50.385Z,25.20
2018-12-31T16:20:06.142Z,25.13
2018-12-31T16:25:23.595Z,26.77
2018-12-31T16:30:39.462Z,26.53
2018-12-31T16:35:54.661Z,31.03
2018-12-31T16:41:10.080Z,27.83
2018-12-31T16:46:26.230Z,26.87
2018-12-31T16:51:42.137Z,27.13
2018-12-31T16:56:58.041Z,23.77
2018-12-31T17:02:13.647Z,24.93
2018-12-31T17:07:29.822Z,24.90
2018-12-31T17:12:45.493Z,25.03
2018-12-31T17:18:01.142Z,25.10
2018-12-31T17:23:16.689Z,26.10
2018-12-31T17:28:32.677Z,35.90
2018-12-31T17:33:47.870Z,24.87
2018-12-31T17:39:04.025Z,27.53
2018-12-31T17:44:19.628Z,27.70
2018-12-31T17:49:35.340Z,27.23
2018-12-31T17:54:51.511Z,29.90
2018-12-31T18:00:07.026Z,29.63
2018-12-31T18:05:22.891Z,31.90
2018-12-31T18:10:38.798Z,32.33
2018-12-31T18:15:54.509Z,30.67
2018-12-31T18:21:10.658Z,30.23
2018-12-31T18:26:25.949Z,30.13
2018-12-31T18:31:41.777Z,30.37
2018-12-31T18:36:57.280Z,29.50
2018-12-31T18:42:13.057Z,30.40
2018-12-31T18:47:29.145Z,28.00
2018-12-31T18:52:45.114Z,27.73
2018-12-31T18:58:01.032Z,28.33
2018-12-31T19:03:16.170Z,27.30
2018-12-31T19:08:33.283Z,28.33
2018-12-31T19:13:49.796Z,26.70
2018-12-31T19:19:05.642Z,27.70
2018-12-31T19:24:21.586Z,25.90
2018-12-31T19:29:37.158Z,23.47
2018-12-31T19:34:52.749Z,22.90
2018-12-31T19:40:08.452Z,22.37
2018-12-31T19:45:24.863Z,23.00
2018-12-31T19:50:40.783Z,22.50
2018-12-31T19:55:57.046Z,22.87
2018-12-31T20:01:12.775Z,21.23
2018-12-31T20:06:16.384Z,21.47
2018-12-31T20:11:39.406Z,20.97
2018-12-31T20:17:02.434Z,18.57
2018-12-31T20:22:18.097Z,18.37
2018-12-31T20:27:33.522Z,19.87
2018-12-31T20:32:48.983Z,20.27
2018-12-31T20:38:04.991Z,28.63
2018-12-31T20:43:20.233Z,37.47
2018-12-31T20:48:36.759Z,24.27
2018-12-31T20:53:53.031Z,23.27
2018-12-31T20:59:08.446Z,24.83
2018-12-31T21:04:23.839Z,26.13
2018-12-31T21:09:39.609Z,24.83
2018-12-31T21:14:55.393Z,25.13
2018-12-31T21:20:10.757Z,25.97
2018-12-31T21:25:27.321Z,28.33
2018-12-31T21:30:43.159Z,27.43
2018-12-31T21:35:58.994Z,28.50
2018-12-31T21:41:15.259Z,27.33
2018-12-31T21:46:31.065Z,23.57
2018-12-31T21:51:47.521Z,26.83
2018-12-31T21:56:51.086Z,22.73
2018-12-31T22:02:14.257Z,24.00
2018-12-31T22:07:37.028Z,23.90
2018-12-31T22:18:28.196Z,27.00
2018-12-31T22:23:43.574Z,25.60
2018-12-31T22:28:59.231Z,28.50
2018-12-31T22:34:15.160Z,30.23
2018-12-31T22:45:05.069Z,29.13
2018-12-31T22:50:20.633Z,33.27
2018-12-31T22:55:36.223Z,35.80
2018-12-31T23:00:53.025Z,37.93
2018-12-31T23:06:08.503Z,99.50
2018-12-31T23:11:23.999Z,381.27
2018-12-31T23:16:39.742Z,414.80
2018-12-31T23:21:55.186Z,412.03
2018-12-31T23:27:10.496Z,258.57
2018-12-31T23:32:14.182Z,291.10
2018-12-31T23:37:37.428Z,178.10
2018-12-31T23:43:06.318Z,202.57
2018-12-31T23:48:25.188Z,181.43
2018-12-31T23:53:47.970Z,112.93
2018-12-31T23:59:10.990Z,100.07
